createdAt,value
2022-11-01T00:04:22.110Z,13.40
2022-11-01T00:09:26.538Z,13.40
2022-11-01T00:14:29.759Z,13.50
2022-11-01T00:19:33.048Z,13.30
2022-11-01T00:24:37.596Z,13.40
2022-11-01T00:29:40.819Z,13.40
2022-11-01T00:34:43.869Z,13.40
2022-11-01T00:39:48.279Z,13.50
2022-11-01T00:44:51.471Z,13.40
2022-11-01T00:49:54.691Z,13.40
2022-11-01T00:54:59.349Z,13.50
2022-11-01T01:00:02.661Z,13.50
2022-11-01T01:05:07.198Z,13.50
2022-11-01T01:10:11.643Z,13.40
2022-11-01T01:15:15.171Z,13.40
2022-11-01T01:20:18.671Z,13.30
2022-11-01T01:25:23.635Z,13.40
2022-11-01T01:30:26.763Z,13.30
2022-11-01T01:35:29.927Z,13.20
2022-11-01T01:40:35.127Z,13.10
2022-11-01T01:45:39.146Z,12.80
2022-11-01T01:50:47.736Z,12.80
2022-11-01T01:55:57.645Z,12.70
2022-11-01T02:01:01.283Z,12.50
2022-11-01T02:06:09.215Z,12.50
2022-11-01T02:11:15.312Z,12.60
2022-11-01T02:16:37.866Z,12.70
2022-11-01T02:21:51.287Z,12.60
2022-11-01T02:27:10.500Z,12.60
2022-11-01T02:32:22.477Z,12.60
2022-11-01T02:37:30.010Z,12.60
2022-11-01T02:42:37.482Z,12.60
2022-11-01T02:47:42.253Z,12.60
2022-11-01T02:52:46.342Z,12.60
2022-11-01T02:57:49.855Z,12.50
2022-11-01T03:03:00.493Z,12.50
2022-11-01T03:08:06.550Z,12.40
2022-11-01T03:13:29.890Z,12.30
2022-11-01T03:18:38.720Z,12.10
2022-11-01T03:23:47.362Z,12.00
2022-11-01T03:34:10.899Z,11.80
2022-11-01T03:39:18.462Z,12.10
2022-11-01T03:44:22.282Z,12.40
2022-11-01T03:49:26.749Z,12.40
2022-11-01T03:54:31.667Z,12.60
2022-11-01T03:59:34.871Z,12.60
2022-11-01T04:04:39.601Z,12.50
2022-11-01T04:09:43.043Z,12.40
2022-11-01T04:15:05.487Z,12.30
2022-11-01T04:20:29.137Z,12.10
2022-11-01T04:25:33.780Z,12.00
2022-11-01T04:30:37.022Z,11.80
2022-11-01T04:35:42.090Z,11.70
2022-11-01T04:40:45.604Z,11.50
2022-11-01T04:45:54.655Z,11.50
2022-11-01T04:51:02.532Z,11.40
2022-11-01T04:56:08.879Z,11.40
2022-11-01T05:01:12.348Z,11.20
2022-11-01T05:06:17.273Z,11.10
2022-11-01T05:11:25.374Z,11.10
2022-11-01T05:16:28.907Z,11.00
2022-11-01T05:21:33.357Z,11.10
2022-11-01T05:26:36.905Z,10.90
2022-11-01T05:31:40.637Z,11.10
2022-11-01T05:36:45.131Z,11.40
2022-11-01T05:41:48.569Z,11.20
2022-11-01T05:46:51.618Z,11.30
2022-11-01T05:59:28.535Z,11.40
2022-11-01T06:04:31.704Z,11.30
2022-11-01T06:09:35.035Z,11.30
2022-11-01T06:14:40.037Z,11.30
2022-11-01T06:19:43.119Z,11.50
2022-11-01T06:24:46.444Z,11.70
2022-11-01T06:29:51.037Z,11.70
2022-11-01T06:41:37.843Z,11.90
2022-11-01T06:46:42.318Z,11.80
2022-11-01T06:51:46.047Z,12.00
2022-11-01T06:56:49.439Z,12.10
2022-11-01T07:01:54.758Z,12.30
2022-11-01T07:06:59.671Z,12.30
2022-11-01T07:12:12.166Z,12.30
2022-11-01T07:17:23.135Z,12.50
2022-11-01T07:22:27.488Z,12.50
2022-11-01T07:27:30.929Z,12.60
2022-11-01T07:32:39.746Z,12.60
2022-11-01T07:37:43.837Z,12.60
2022-11-01T07:42:47.638Z,12.80
2022-11-01T09:02:57.849Z,15.00
2022-11-01T09:08:05.487Z,14.80
2022-11-01T09:13:09.199Z,15.20
2022-11-01T09:18:13.876Z,15.20
2022-11-01T09:23:17.129Z,15.30
2022-11-01T09:28:20.437Z,15.60
2022-11-01T09:33:25.133Z,15.70
2022-11-01T09:38:29.074Z,16.30
2022-11-01T09:43:35.728Z,16.40
2022-11-01T10:04:05.964Z,16.20
2022-11-01T10:09:20.586Z,16.20
2022-11-01T10:14:40.000Z,16.20
2022-11-01T10:27:22.639Z,16.70
2022-11-01T10:32:32.872Z,16.60
2022-11-01T10:37:51.868Z,16.60
2022-11-01T10:43:13.544Z,16.30
2022-11-01T10:48:27.323Z,16.30
2022-11-01T10:53:35.496Z,16.10
2022-11-01T10:58:47.329Z,16.00
2022-11-01T11:03:52.068Z,16.00
2022-11-01T11:08:56.634Z,15.90
2022-11-01T11:14:05.605Z,15.90
2022-11-01T11:19:22.164Z,16.10
2022-11-01T11:24:30.608Z,16.30
2022-11-01T11:29:41.314Z,16.70
2022-11-01T11:34:52.933Z,17.00
2022-11-01T11:40:19.555Z,17.40
2022-11-01T12:18:26.548Z,16.90
2022-11-01T12:23:35.058Z,16.30
2022-11-01T12:28:43.143Z,16.20
2022-11-01T12:33:52.704Z,16.20
2022-11-01T12:39:00.617Z,16.40
2022-11-01T12:44:13.390Z,16.90
2022-11-01T12:49:32.615Z,17.50
2022-11-01T12:54:41.347Z,18.40
2022-11-01T12:59:46.538Z,19.40
2022-11-01T13:04:58.869Z,19.70
2022-11-01T13:10:10.864Z,19.50
2022-11-01T13:15:22.854Z,19.40
2022-11-01T13:20:37.883Z,19.30
2022-11-01T13:25:47.509Z,19.60
2022-11-01T13:30:59.235Z,19.30
2022-11-01T13:36:11.359Z,19.00
2022-11-01T13:41:21.057Z,18.50
2022-11-01T13:46:46.228Z,17.80
2022-11-01T13:51:56.847Z,17.50
2022-11-01T13:57:09.662Z,17.10
2022-11-01T14:02:49.153Z,16.90
2022-11-01T14:08:14.056Z,17.00
2022-11-01T14:13:29.890Z,16.80
2022-11-01T14:19:09.670Z,16.80
2022-11-01T14:24:34.563Z,17.00
2022-11-01T14:29:38.898Z,16.90
2022-11-01T14:34:45.837Z,17.00
2022-11-01T14:40:04.515Z,17.10
2022-11-01T14:45:22.714Z,17.00
2022-11-01T14:58:24.221Z,16.70
2022-11-01T15:03:27.710Z,16.30
2022-11-01T15:08:37.535Z,16.10
2022-11-01T15:13:45.606Z,15.80
2022-11-01T15:18:53.080Z,15.60
2022-11-01T15:23:57.460Z,15.30
2022-11-01T15:29:04.810Z,15.00
2022-11-01T15:34:22.226Z,14.70
2022-11-01T15:39:28.986Z,14.30
2022-11-01T15:44:33.997Z,14.10
2022-11-01T15:49:45.508Z,13.90
2022-11-01T15:54:55.420Z,13.80
2022-11-01T16:00:07.033Z,13.60
2022-11-01T16:05:20.386Z,13.40
2022-11-01T16:10:26.595Z,13.20
2022-11-01T16:15:33.140Z,13.00
2022-11-01T16:20:40.886Z,12.80
2022-11-01T16:25:44.135Z,12.70
2022-11-01T16:30:50.051Z,12.50
2022-11-01T16:35:55.449Z,12.50
2022-11-01T16:40:59.537Z,12.30
2022-11-01T16:46:05.263Z,12.40
2022-11-01T16:51:09.789Z,12.30
2022-11-01T16:56:35.599Z,12.30
2022-11-01T17:01:41.448Z,12.30
2022-11-01T17:06:45.848Z,12.00
2022-11-01T17:11:51.922Z,11.90
2022-11-01T17:16:56.867Z,11.90
2022-11-01T17:22:04.101Z,11.80
2022-11-01T17:27:08.895Z,11.80
2022-11-01T17:32:13.965Z,11.70
2022-11-01T17:37:17.644Z,11.70
2022-11-01T17:42:21.004Z,11.60
2022-11-01T17:47:26.236Z,11.50
2022-11-01T17:52:30.174Z,11.50
2022-11-01T17:57:34.509Z,11.50
2022-11-01T18:02:39.343Z,11.50
2022-11-01T18:07:44.605Z,11.30
2022-11-01T18:12:59.664Z,11.20
2022-11-01T18:18:23.066Z,11.00
2022-11-01T18:23:28.209Z,10.90
2022-11-01T18:28:35.017Z,10.70
2022-11-01T18:33:42.960Z,10.70
2022-11-01T18:38:53.510Z,10.60
2022-11-01T18:43:57.035Z,10.50
2022-11-01T18:49:06.946Z,10.40
2022-11-01T18:54:33.336Z,10.30
2022-11-01T18:59:39.221Z,10.30
2022-11-01T19:04:44.629Z,10.30
2022-11-01T19:09:53.415Z,10.00
2022-11-01T19:15:03.032Z,9.90
2022-11-01T19:20:21.211Z,9.70
2022-11-01T19:25:27.877Z,9.50
2022-11-01T19:30:33.054Z,9.50
2022-11-01T19:35:38.801Z,9.70
2022-11-01T19:40:44.128Z,9.60
2022-11-01T19:45:50.483Z,9.40
2022-11-01T19:50:55.489Z,9.30
2022-11-01T19:56:00.335Z,9.20
2022-11-01T20:01:40.708Z,9.10
2022-11-01T20:06:49.512Z,9.00
2022-11-01T20:11:53.608Z,9.00
2022-11-01T20:16:57.663Z,9.00
2022-11-01T20:22:03.286Z,8.90
2022-11-01T20:27:07.592Z,8.90
2022-11-01T20:32:11.739Z,8.60
2022-11-01T20:37:28.396Z,8.40
2022-11-01T20:42:32.420Z,8.40
2022-11-01T20:47:35.731Z,8.30
2022-11-01T20:52:40.488Z,8.30
2022-11-01T20:57:44.685Z,8.20
2022-11-01T21:02:49.456Z,8.10
2022-11-01T21:07:59.651Z,7.90
2022-11-01T21:13:20.509Z,7.90
2022-11-01T21:18:39.367Z,8.00
2022-11-01T21:23:44.723Z,8.00
2022-11-01T21:28:49.994Z,8.00
2022-11-01T21:33:54.078Z,7.90
2022-11-01T21:39:00.029Z,8.00
2022-11-01T21:44:20.065Z,7.90
2022-11-01T21:49:29.028Z,7.90
2022-11-01T21:54:35.320Z,7.80
2022-11-01T21:59:39.201Z,7.70
2022-11-01T22:04:44.407Z,7.60
2022-11-01T22:09:49.819Z,7.50
2022-11-01T22:14:53.829Z,7.50
2022-11-01T22:19:57.576Z,7.60
2022-11-01T22:25:02.575Z,7.50
2022-11-01T22:30:08.271Z,7.40
2022-11-01T22:35:11.714Z,7.40
2022-11-01T22:40:18.844Z,7.30
2022-11-01T22:45:22.393Z,7.20
2022-11-01T22:50:28.495Z,7.10
2022-11-01T22:55:42.811Z,7.10
2022-11-01T23:00:46.706Z,7.10
2022-11-01T23:05:52.352Z,7.10
2022-11-01T23:10:57.478Z,7.10
2022-11-01T23:16:02.766Z,7.20
2022-11-01T23:21:08.172Z,7.30
2022-11-01T23:26:14.046Z,7.20
2022-11-01T23:31:19.013Z,7.10
2022-11-01T23:36:26.599Z,7.10
2022-11-01T23:41:34.643Z,7.20
2022-11-01T23:46:38.697Z,7.10
2022-11-01T23:51:42.340Z,7.00
2022-11-01T23:56:47.082Z,6.90
